Tiempo atmosférico en la estación meteorológica de Caldes De Montbui, Barcelona (168 m.)



Fecha
DESCASC
Temp. máxima en grados centígrados (hora)
DESCASC
Temp. mínima en grados centígrados (hora)
DESCASC
Temp. media en grados centígrados
DESCASC
Racha de viento máxima en m/sg (hora)
DESCASC
Velocidad máxima media en intervalos de 10 minutos(hora)
DESCASC
Precipitaciones diarias en mm
DESCASC
Precipitaciones de 00:00 a 06:00 en mm
DESCASC
Precipitaciones de 06:00 a 12:00 en mm
DESCASC
Precipitaciones de 12:00 a 18:00 en mm
DESCASC
Precipitaciones de 18:00 a 24:00 en mm
DESCASC
06-07-2020 32.4 (13:40) 17.3 (06:20) 24.9 8.33 (14:30) 5 (14:30) 0 0 0 0 0
05-07-2020 31.7 (16:30) 16.5 (06:10) 24.1 8.61 (16:10) 5.83 (16:20) 0 0 0 0 0
04-07-2020 26.7 (14:00) 18.4 (07:10) 22.6 8.33 (14:30) 5.28 (14:10) 0 0 0 0 0
03-07-2020 25.4 (14:50) 18.5 (06:50) 21.9 9.44 (16:20) 6.67 (16:00) 17.6 3.8 13.8 0 0
02-07-2020 31.6 (13:30) 19.6 (00:00) 25.6 10.28 (14:30) 6.39 (15:00) 0 0 0 0 0
01-07-2020 33.3 (16:40) 17.8 (00:00) 25.5 7.22 (14:40) 4.72 (14:40) 0 0 0 0 0
30-06-2020 28.9 (17:20) 20.5 (00:00) 24.7 7.78 (17:30) 5 (17:30) 0 0 0 0 0
29-06-2020 30 (14:00) 18.6 (00:00) 24.3 8.33 (15:30) 5 (14:00) 0 0 0 0 0
28-06-2020 31.4 (14:50) 18.3 (00:00) 24.8 8.33 (12:50) 5.56 (16:50) 0 0 0 0 0
27-06-2020 29.7 (14:30) 17.9 (00:00) 23.8 8.89 (16:10) 5 (16:10) 0 0 0 0 0
26-06-2020 31.1 (15:30) 17.8 (00:00) 24.4 8.61 (15:50) 5.28 (15:00) 0 0 0 0 0
25-06-2020 30.2 (16:40) 17.4 (00:00) 23.8 7.5 (14:30) 4.72 (13:40) 0 0 0 0 0
24-06-2020 29.8 (14:40) 15.3 (00:00) 22.5 9.17 (16:30) 6.11 (16:40) 0 0 0 0 0
23-06-2020 30.2 (15:10) 17 (00:00) 23.6 9.44 (15:00) 5.83 (17:00) 0 0 0 0 0
22-06-2020 28.9 (12:30) 16.9 (00:00) 22.9 8.61 (14:20) 5.28 (14:20) 0 0 0 0 0
21-06-2020 28.9 (16:30) 16.1 (00:00) 22.5 7.5 (15:40) 4.44 (14:50) 0 0 0 0 0
20-06-2020 26.9 (15:00) 13.6 (00:00) 20.3 10.28 (15:20) 6.11 (15:30) 6 0 0 0 6
19-06-2020 24.6 (15:50) 14.6 (00:00) 19.6 8.33 (16:10) 5 (17:30) 0 0 0 0 0
18-06-2020 24.4 (16:30) 13.8 (00:00) 19.1 8.06 (16:30) 5 (17:00) 18.2 0 18.2 0 0
17-06-2020 24.8 (13:40) 12.3 (00:00) 18.5 11.39 (14:50) 6.39 (14:40) 0 0 0 0 0
16-06-2020 22.4 (19:10) 15.1 (00:00) 18.8 5 (14:20) 3.33 (14:20) 4.4 0.6 1.2 2.6 0
15-06-2020 26.1 (13:20) 14.5 (00:00) 20.3 11.39 (14:00) 6.39 (15:10) 0 0 0 0 0
14-06-2020 25.5 (13:20) 13 (00:00) 19.3 9.44 (15:00) 5.56 (14:50) 0 0 0 0 0
13-06-2020 27.6 (18:00) 12.3 (00:00) 20 10 (12:50) 5.83 (12:40) 0 0 0 0 0
12-06-2020 26.3 (15:20) 15.5 (00:00) 20.9 9.44 (14:20) 4.72 (13:30) 0 0 0 0 0
11-06-2020 22.3 (13:40) 14.5 (00:00) 18.4 6.67 (14:10) 3.89 (14:10) 0.2 0 0 0 0.2
10-06-2020 -- (--) -- (--) -- 8.61 (15:40) 5.56 (15:30) -- -- 0 1 0.2
09-06-2020 -- (--) -- (--) -- 9.17 (14:10) 4.44 (14:00) -- -- -- -- --
08-06-2020 -- (--) -- (--) -- 7.78 (16:00) 4.72 (14:10) -- -- -- -- --
07-06-2020 -- (--) -- (--) -- 5.83 (15:40) 3.89 (15:40) -- -- -- -- --

Gráficas

Temp. máximas Temp. mínimas Temp. medias Precipitaciones Rachas de viento máximas Velocidades máximas media en intervalos de 10 minutos

Datos horarios

Fecha y hora oficial Temperatura (ºC) Velocidad del viento (km/h) Dirección del viento Racha (km/h) Dirección de racha Precipitación (mm) Presión (hPa) Tendencia (hPa) Humedad (%)
2020-07-06 23:00:00 23.1 3 Oeste 6 Sudoeste 0 -- -- 87
2020-07-06 22:00:00 23.7 4 Sur 10 Sudeste 0 -- -- 83
2020-07-06 21:00:00 25.1 6 Sur 19 Sudeste 0 -- -- 77
2020-07-06 20:00:00 27 15 Sudeste 23 Sur 0 -- -- 69
2020-07-06 19:00:00 29.8 14 Sudeste 21 Este 0 -- -- 55
2020-07-06 18:00:00 29.6 9 Este 24 Este 0 -- -- 56
2020-07-06 17:00:00 30 11 Este 24 Este 0 -- -- 56
2020-07-06 16:00:00 30 12 Este 25 Sudeste 0 -- -- 56
2020-07-06 15:00:00 31.2 16 Este 30 Sudeste 0 -- -- 52
2020-07-06 14:00:00 32.4 11 Este 24 Este 0 -- -- 48
2020-07-06 13:00:00 31.7 9 Sudeste 20 Sudeste 0 -- -- 45
2020-07-06 12:00:00 30.4 6 Este 15 Sudeste 0 -- -- 46
2020-07-06 11:00:00 28.7 9 Sudeste 15 Sudeste 0 -- -- 53
2020-07-06 10:00:00 26.8 5 Este 9 Este 0 -- -- 60
2020-07-06 09:00:00 24.4 4 Este 7 Este 0 -- -- 70
2020-07-06 08:00:00 21.5 2 Noroeste 10 Noroeste 0 -- -- 75
2020-07-06 07:00:00 18.3 5 Noroeste 12 Noroeste 0 -- -- 83
2020-07-06 06:00:00 17.8 4 Noroeste 14 Noroeste 0 -- -- 83
2020-07-06 05:00:00 18.6 8 Noroeste 12 Noroeste 0 -- -- 80
2020-07-06 04:00:00 18.8 10 Noroeste 13 Noroeste 0 -- -- 79
2020-07-06 03:00:00 19.7 7 Noroeste 13 Noroeste 0 -- -- 76
2020-07-06 02:00:00 20.2 9 Noroeste 12 Noroeste 0 -- -- 75
2020-07-06 01:00:00 20.7 10 Noroeste 14 Noroeste 0 -- -- 74
2020-07-06 00:00:00 21.5 8 Noroeste 12 Noroeste 0 -- -- 72
2020-07-05 23:00:00 22.7 8 Noroeste 12 Oeste 0 -- -- 69
2020-07-05 22:00:00 25.6 5 Sudoeste 12 Sudoeste 0 -- -- 60
2020-07-05 21:00:00 29.3 8 Sudoeste 12 Sur 0 -- -- 43
2020-07-05 20:00:00 30.5 9 Sudeste 18 Sudeste 0 -- -- 44
2020-07-05 19:00:00 31.2 13 Sudeste 22 Sudeste 0 -- -- 36
2020-07-05 18:00:00 31.5 16 Sudeste 27 Este 0 -- -- 32
2020-07-05 17:00:00 31.5 20 Sudeste 31 Este 0 -- -- 36
2020-07-05 16:00:00 31.5 20 Sudeste 28 Sudeste 0 -- -- 41
2020-07-05 15:00:00 31.5 14 Sudeste 30 Este 0 -- -- 45
2020-07-05 14:00:00 31 12 Sudeste 26 Sudeste 0 -- -- 45
2020-07-05 13:00:00 29.8 8 Sudeste 19 Sudeste 0 -- -- 44
2020-07-05 12:00:00 28.2 7 Sudeste 14 Sudeste 0 -- -- 51
2020-07-05 11:00:00 26.4 5 Este 11 Sudeste 0 -- -- 58
2020-07-05 10:00:00 24.4 3 Sudeste 8 Este 0 -- -- 66
2020-07-05 09:00:00 22 4 Sudeste 6 Este 0 -- -- 78
2020-07-05 08:00:00 19.3 2 Noroeste 10 Noroeste 0 -- -- 87
2020-07-05 07:00:00 16.7 5 Noroeste 9 Noroeste 0 -- -- 92
2020-07-05 06:00:00 16.7 5 Noroeste 8 Noroeste 0 -- -- 93
2020-07-05 05:00:00 16.8 6 Noroeste 8 Noroeste 0 -- -- 94
2020-07-05 04:00:00 17.5 6 Oeste 12 Noroeste 0 -- -- 92
2020-07-05 03:00:00 18.3 9 Noroeste 14 Noroeste 0 -- -- 92
2020-07-05 02:00:00 18.5 9 Noroeste 12 Noroeste 0 -- -- 93
2020-07-05 01:00:00 18.8 8 Noroeste 10 Noroeste 0 -- -- 92
2020-07-05 00:00:00 19.7 8 Noroeste 10 Noroeste 0 -- -- 90
2020-07-04 23:00:00 20.6 6 Noroeste 10 Noroeste 0 -- -- 88
2020-07-04 22:00:00 21.9 2 Noroeste 7 Sudeste 0 -- -- 82
2020-07-04 21:00:00 24.6 4 Este 17 Sudeste 0 -- -- 71
2020-07-04 20:00:00 26 8 Sudeste 18 Sudeste 0 -- -- 65
2020-07-04 19:00:00 26.4 12 Sudeste 22 Sudeste 0 -- -- 62
2020-07-04 18:00:00 26.5 14 Sudeste 25 Sudeste 0 -- -- 60
2020-07-04 17:00:00 26.5 16 Sudeste 26 Este 0 -- -- 58
2020-07-04 16:00:00 26.5 15 Sudeste 30 Sudeste 0 -- -- 58
2020-07-04 15:00:00 26.4 15 Sudeste 30 Este 0 -- -- 59
2020-07-04 14:00:00 26.7 14 Sudeste 27 Sudeste 0 -- -- 58
2020-07-04 13:00:00 25.8 9 Sur 21 Sur 0 -- -- 51
2020-07-04 12:00:00 24.8 8 Este 18 Este 0 -- -- 61
2020-07-04 11:00:00 22.6 4 Este 9 Sur 0 -- -- 72
2020-07-04 10:00:00 21.5 3 Oeste 8 Noroeste 0 -- -- 67
2020-07-04 09:00:00 19.7 4 Oeste 12 Norte 0 -- -- 70
2020-07-04 08:00:00 18.9 3 Norte 8 Norte 0 -- -- 76
2020-07-04 07:00:00 18.5 0 Calma 9 Oeste 0 -- -- 92
2020-07-04 06:00:00 19.1 5 Noroeste 8 Noroeste 0 -- -- 94
2020-07-04 05:00:00 19.7 4 Noroeste 7 Noroeste 0 -- -- 93
2020-07-04 04:00:00 20.1 4 Noroeste 8 Oeste 0 -- -- 92
2020-07-04 03:00:00 20.3 4 Noroeste 8 Noroeste 0 -- -- 92
2020-07-04 02:00:00 20.5 3 Norte 10 Oeste 0 -- -- 91
2020-07-04 01:00:00 20.5 3 Este 6 Este 0 -- -- 89
2020-07-04 00:00:00 20.8 3 Sudeste 12 Sudeste 0 -- -- 87
2020-07-03 23:00:00 21.3 7 Sudeste 17 Sudeste 0 -- -- 86
2020-07-03 22:00:00 21.7 12 Sudeste 21 Este 0 -- -- 83
2020-07-03 21:00:00 22.1 12 Sudeste 19 Sudeste 0 -- -- 81
2020-07-03 20:00:00 22.3 13 Sudeste 24 Sudeste 0 -- -- 79
2020-07-03 19:00:00 22.8 11 Sudeste 25 Este 0 -- -- 75
2020-07-03 18:00:00 23.4 13 Este 26 Sudeste 0 -- -- 75
2020-07-03 17:00:00 23 17 Este 34 Sudeste 0 -- -- 76
2020-07-03 16:00:00 24.6 24 Sudeste 33 Sudeste 0 -- -- 72
2020-07-03 15:00:00 25.3 18 Sudeste 32 Sudeste 0 -- -- 69
2020-07-03 14:00:00 24.2 18 Sudeste 25 Sudeste 0 -- -- 70
2020-07-03 13:00:00 23.2 7 Este 17 Este 0 -- -- 70
2020-07-03 12:00:00 22.8 9 Sudeste 15 Sur 0 -- -- 75
2020-07-03 11:00:00 22.3 3 Este 11 Sudeste 0 -- -- 75
2020-07-03 10:00:00 20.9 3 Sudeste 12 Este 0 -- -- 86
2020-07-03 09:00:00 19.7 4 Nordeste 8 Sudeste 0 -- -- 94
2020-07-03 08:00:00 19.1 4 Sudeste 6 Sudeste 0 -- -- 96
2020-07-03 07:00:00 18.6 4 Noroeste 19 Sudeste 13.8 -- -- 96
2020-07-03 06:00:00 19.3 7 Sur 10 Sur 0 -- -- 94
2020-07-03 05:00:00 19.7 4 Nordeste 9 Norte 0.6 -- -- 90
2020-07-03 04:00:00 19.8 3 Sudeste 10 Sudoeste 0 -- -- 92
2020-07-03 03:00:00 19.8 6 Oeste 13 Noroeste 0.8 -- -- 89
2020-07-03 02:00:00 20.5 10 Noroeste 21 Noroeste 2.4 -- -- 82
2020-07-03 01:00:00 21.7 3 Oeste 12 Sur 0 -- -- 71
2020-07-03 00:00:00 22.1 4 Sur 19 Noroeste 0 -- -- 66
2020-07-02 23:00:00 22.7 13 Noroeste 23 Noroeste 0 -- -- 65
2020-07-02 22:00:00 23.8 8 Norte 18 Norte 0 -- -- 66
2020-07-02 21:00:00 24.6 5 Nordeste 20 Este 0 -- -- 66
2020-07-02 20:00:00 25.6 13 Este 24 Este 0 -- -- 62
2020-07-02 19:00:00 27.3 14 Sudeste 22 Sudeste 0 -- -- 59
2020-07-02 18:00:00 28.8 13 Sudeste 30 Sudeste 0 -- -- 57
2020-07-02 17:00:00 29.5 19 Sudeste 31 Sudeste 0 -- -- 56
2020-07-02 16:00:00 31 21 Sudeste 36 Sudeste 0 -- -- 52
2020-07-02 15:00:00 30.3 23 Sudeste 37 Sudeste 0 -- -- 54
2020-07-02 14:00:00 31 19 Sudeste 31 Este 0 -- -- 52
2020-07-02 13:00:00 31.2 15 Sudeste 25 Sudeste 0 -- -- 50
2020-07-02 12:00:00 30.6 12 Sudeste 23 Sur 0 -- -- 54
2020-07-02 11:00:00 28.9 10 Sudeste 20 Este 0 -- -- 61
2020-07-02 10:00:00 27 7 Sudeste 13 Sudeste 0 -- -- 71
2020-07-02 09:00:00 24.7 3 Sudeste 8 Sudeste 0 -- -- 78
2020-07-02 08:00:00 21.7 3 Este 6 Este 0 -- -- 90
2020-07-02 07:00:00 19.8 3 Noroeste 8 Oeste 0 -- -- 92
2020-07-02 06:00:00 20.1 6 Noroeste 11 Noroeste 0 -- -- 90
2020-07-02 05:00:00 19.8 0 Calma 11 Noroeste 0 -- -- 89
2020-07-02 04:00:00 20.3 6 Noroeste 13 Noroeste 0 -- -- 90
2020-07-02 03:00:00 20.6 5 Noroeste 10 Noroeste 0 -- -- 88
2020-07-02 02:00:00 21 6 Noroeste 11 Oeste 0 -- -- 88
2020-07-02 01:00:00 21.5 3 Oeste 11 Noroeste 0 -- -- 86
2020-07-02 00:00:00 22.1 5 Noroeste 8 Noroeste 0 -- -- 86
2020-07-01 23:00:00 23.1 3 Oeste 4 Sudoeste 0 -- -- 81
2020-07-01 22:00:00 25 0 Calma 9 Nordeste 0 -- -- 74
2020-07-01 21:00:00 26.4 8 Sudeste 17 Sudeste 0 -- -- 69
2020-07-01 20:00:00 28.5 13 Sudeste 20 Sudeste 0 -- -- 60
2020-07-01 19:00:00 30.7 15 Sudeste 21 Sudeste 0 -- -- 50
2020-07-01 18:00:00 32.3 13 Sur 21 Sudeste 0 -- -- 39
2020-07-01 17:00:00 33.2 12 Sudeste 22 Sudeste 0 -- -- 36
2020-07-01 16:00:00 33 12 Sudeste 23 Este 0 -- -- 35
2020-07-01 15:00:00 33.1 17 Sudeste 26 Sudeste 0 -- -- 34
2020-07-01 14:00:00 33.2 14 Sudeste 22 Sudeste 0 -- -- 42
2020-07-01 13:00:00 31.9 10 Sur 21 Sur 0 -- -- 41
2020-07-01 12:00:00 31.2 7 Sur 18 Sudeste 0 -- -- 42
2020-07-01 11:00:00 29.8 4 Norte 10 Este 0 -- -- 45
2020-07-01 10:00:00 27.6 5 Este 10 Nordeste 0 -- -- 61
2020-07-01 09:00:00 24.2 2 Nordeste 9 Noroeste 0 -- -- 69
2020-07-01 08:00:00 20.6 4 Noroeste 8 Noroeste 0 -- -- 88
2020-07-01 07:00:00 18.2 6 Noroeste 11 Noroeste 0 -- -- 86
2020-07-01 06:00:00 18.3 3 Noroeste 8 Oeste 0 -- -- 88
2020-07-01 05:00:00 19.3 6 Noroeste 15 Noroeste 0 -- -- 86
2020-07-01 04:00:00 19.4 3 Oeste 15 Oeste 0 -- -- 89
2020-07-01 03:00:00 19.6 8 Noroeste 13 Noroeste 0 -- -- 91
2020-07-01 02:00:00 19.6 4 Oeste 9 Noroeste 0 -- -- 91
2020-07-01 01:00:00 20.2 7 Oeste 12 Noroeste 0 -- -- 92
2020-07-01 00:00:00 20.9 5 Oeste 11 Oeste 0 -- -- 91
2020-06-30 23:00:00 21.5 3 Noroeste 8 Oeste 0 -- -- 88
2020-06-30 22:00:00 23.2 4 Sur 11 Sudeste 0 -- -- 84
2020-06-30 21:00:00 24.9 7 Sur 14 Sur 0 -- -- 78
2020-06-30 20:00:00 26.7 11 Sur 19 Sudeste 0 -- -- 70
2020-06-30 19:00:00 28 10 Sudeste 21 Sudeste 0 -- -- 65
2020-06-30 18:00:00 28.1 13 Sudeste 28 Sudeste 0 -- -- 65
2020-06-30 17:00:00 28.7 12 Sudeste 22 Sudeste 0 -- -- 63
2020-06-30 16:00:00 28.4 13 Sudeste 22 Sur 0 -- -- 63
2020-06-30 15:00:00 27.5 14 Sudeste 22 Sudeste 0 -- -- 67
2020-06-30 14:00:00 26.6 9 Sudeste 17 Sudeste 0 -- -- 72
2020-06-30 13:00:00 24.9 9 Sudeste 15 Sudeste 0 -- -- 77
2020-06-30 12:00:00 24.5 5 Sudeste 13 Sudeste 0 -- -- 75
2020-06-30 11:00:00 23.6 3 Este 7 Este 0 -- -- 83
2020-06-30 10:00:00 23 3 Sudeste 6 Sudoeste 0 -- -- 84
2020-06-30 09:00:00 22.2 3 Noroeste 8 Oeste 0 -- -- 87
2020-06-30 08:00:00 21.5 6 Noroeste 10 Noroeste 0 -- -- 87
2020-06-30 07:00:00 20.9 7 Noroeste 12 Noroeste 0 -- -- 90
2020-06-30 06:00:00 20.6 7 Oeste 10 Oeste 0 -- -- 91
2020-06-30 05:00:00 21.8 2 Noroeste 3 Oeste 0 -- -- 90
2020-06-30 04:00:00 21.4 2 Sudoeste -- -- 0 -- -- 91
2020-06-30 03:00:00 21 0 Calma 4 Sudoeste 0 -- -- 91
2020-06-30 02:00:00 21.9 4 Sur 6 Sur 0 -- -- 87
2020-06-30 01:00:00 22.8 5 Sur 9 Sudeste 0 -- -- 85
2020-06-30 00:00:00 23 6 Sudeste 17 Sudeste 0 -- -- 84
2020-06-29 23:00:00 23.4 8 Sudeste 12 Este 0 -- -- 84
2020-06-29 22:00:00 23.9 6 Este 17 Sudeste 0 -- -- 82
2020-06-29 21:00:00 24.3 10 Sudeste 19 Sudeste 0 -- -- 81
2020-06-29 20:00:00 24.5 10 Sudeste 18 Este 0 -- -- 81
2020-06-29 19:00:00 24.9 12 Sudeste 23 Sudeste 0 -- -- 78
2020-06-29 18:00:00 25.9 13 Sudeste 23 Sudeste 0 -- -- 73
2020-06-29 17:00:00 27.1 15 Sudeste 26 Sudeste 0 -- -- 67
2020-06-29 16:00:00 27.8 15 Sudeste 30 Sudeste 0 -- -- 64
2020-06-29 15:00:00 28.9 15 Sudeste 28 Sudeste 0 -- -- 58
2020-06-29 14:00:00 30 18 Sudeste 28 Sudeste 0 -- -- 56
2020-06-29 13:00:00 29.7 10 Sudeste 22 Sudeste 0 -- -- 56
2020-06-29 12:00:00 28.8 9 Sudeste 18 Sudeste 0 -- -- 52
2020-06-29 11:00:00 27.6 6 Este 18 Sudeste 0 -- -- 61
2020-06-29 10:00:00 26.3 5 Este 14 Sudeste 0 -- -- 67
2020-06-29 09:00:00 24.3 2 Este 5 Este 0 -- -- 77
2020-06-29 08:00:00 21.6 2 Norte 8 Noroeste 0 -- -- 85
2020-06-29 07:00:00 18.8 5 Noroeste 12 Noroeste 0 -- -- 91
2020-06-29 06:00:00 18.6 7 Noroeste 11 Noroeste 0 -- -- 90
2020-06-29 05:00:00 18.6 6 Noroeste 14 Noroeste 0 -- -- 88
2020-06-29 04:00:00 19.1 9 Noroeste 13 Noroeste 0 -- -- 86
2020-06-29 03:00:00 19.4 8 Noroeste 13 Noroeste 0 -- -- 87
2020-06-29 02:00:00 20 9 Noroeste 12 Noroeste 0 -- -- 87
2020-06-29 01:00:00 20.8 5 Noroeste 12 Noroeste 0 -- -- 87
2020-06-29 00:00:00 21.2 6 Noroeste 8 Noroeste 0 -- -- 87
2020-06-28 23:00:00 22.5 3 Noroeste 6 Noroeste 0 -- -- 85
2020-06-28 22:00:00 24 3 Sudoeste 5 Este 0 -- -- 76
2020-06-28 21:00:00 26.2 4 Este 16 Este 0 -- -- 70
2020-06-28 20:00:00 27.8 11 Sudeste 23 Este 0 -- -- 64
2020-06-28 19:00:00 29.2 13 Sudeste 28 Sudeste 0 -- -- 53
2020-06-28 18:00:00 29.9 16 Sudeste 30 Sudeste 0 -- -- 50
2020-06-28 17:00:00 30.5 17 Sudeste 29 Este 0 -- -- 43
2020-06-28 16:00:00 31 18 Sudeste 29 Este 0 -- -- 39
2020-06-28 15:00:00 31.4 17 Sudeste 26 Sudeste 0 -- -- 41
2020-06-28 14:00:00 31 16 Sudeste 26 Sudeste 0 -- -- 43
2020-06-28 13:00:00 30.7 11 Sudeste 30 Sudeste 0 -- -- 46
2020-06-28 12:00:00 29.3 5 Sur 21 Este 0 -- -- 53
2020-06-28 11:00:00 28.3 4 Nordeste 14 Este 0 -- -- 57
2020-06-28 10:00:00 26.2 2 Oeste 8 Sudeste 0 -- -- 70
2020-06-28 09:00:00 24 3 Sudeste 8 Este 0 -- -- 76
2020-06-28 08:00:00 21.3 4 Noroeste 9 Noroeste 0 -- -- 84
2020-06-28 07:00:00 18.9 8 Noroeste 10 Noroeste 0 -- -- 94
2020-06-28 06:00:00 19 8 Noroeste 12 Noroeste 0 -- -- 92
2020-06-28 05:00:00 20.6 9 Noroeste 12 Noroeste 0 -- -- 89
2020-06-28 04:00:00 20 7 Noroeste 9 Noroeste 0 -- -- 92
2020-06-28 03:00:00 19.4 4 Noroeste 8 Noroeste 0 -- -- 90
2020-06-28 02:00:00 19.9 6 Noroeste 9 Noroeste 0 -- -- 90
2020-06-28 01:00:00 20.6 5 Noroeste 9 Noroeste 0 -- -- 89
2020-06-28 00:00:00 20.6 5 Noroeste 7 Noroeste 0 -- -- 87
2020-06-27 23:00:00 21.6 2 Oeste 4 Sudoeste 0 -- -- 83
2020-06-27 22:00:00 23.2 3 Sudoeste 7 Sur 0 -- -- 76
2020-06-27 21:00:00 24.8 5 Sur 15 Sur 0 -- -- 71
2020-06-27 20:00:00 26.4 10 Sudeste 17 Sudeste 0 -- -- 65
2020-06-27 19:00:00 27.3 12 Sudeste 19 Sudeste 0 -- -- 60
2020-06-27 18:00:00 28.2 14 Sudeste 27 Sur 0 -- -- 58
2020-06-27 17:00:00 28.8 15 Sudeste 32 Sudeste 0 -- -- 55
2020-06-27 16:00:00 29.2 15 Sudeste 26 Sudeste 0 -- -- 52
2020-06-27 15:00:00 29.5 17 Sudeste 28 Sudeste 0 -- -- 52
2020-06-27 14:00:00 28.9 11 Sudeste 25 Sudeste 0 -- -- 54
2020-06-27 13:00:00 28.4 14 Sudeste 24 Sudeste 0 -- -- 58
2020-06-27 12:00:00 27.8 10 Sudeste 18 Sudeste 0 -- -- 61
2020-06-27 11:00:00 27.2 5 Este 14 Sudeste 0 -- -- 58
2020-06-27 10:00:00 25.8 5 Este 12 Sudeste 0 -- -- 65
2020-06-27 09:00:00 24.3 5 Este 12 Noroeste 0 -- -- 73
2020-06-27 08:00:00 20.5 10 Noroeste 16 Noroeste 0 -- -- 71
2020-06-27 07:00:00 17.9 10 Noroeste 15 Noroeste 0 -- -- 77
2020-06-27 06:00:00 18.2 12 Noroeste 15 Noroeste 0 -- -- 75
2020-06-27 05:00:00 18.8 10 Noroeste 14 Noroeste 0 -- -- 71
2020-06-27 04:00:00 18.8 10 Noroeste 13 Noroeste 0 -- -- 72
2020-06-27 03:00:00 19.3 5 Noroeste 17 Noroeste 0 -- -- 67
2020-06-27 02:00:00 19.2 10 Noroeste 15 Noroeste 0 -- -- 68
2020-06-27 01:00:00 19.4 8 Noroeste 17 Noroeste 0 -- -- 70
2020-06-27 00:00:00 20.7 11 Noroeste 16 Noroeste 0 -- -- 65
2020-06-26 23:00:00 20.6 8 Noroeste 16 Noroeste 0 -- -- 66
2020-06-26 22:00:00 21.7 8 Noroeste 12 Noroeste 0 -- -- 64
2020-06-26 21:00:00 24.6 5 Sudeste 11 Sur 0 -- -- 55
2020-06-26 20:00:00 28 10 Sudeste 19 Sudeste 0 -- -- 41
2020-06-26 19:00:00 29.5 12 Sudeste 23 Sudeste 0 -- -- 37
2020-06-26 18:00:00 30 17 Sudeste 29 Sudeste 0 -- -- 35
2020-06-26 17:00:00 30.5 18 Sudeste 29 Sudeste 0 -- -- 33
2020-06-26 16:00:00 30.9 17 Sudeste 31 Sudeste 0 -- -- 34
2020-06-26 15:00:00 30.8 19 Sudeste 30 Este 0 -- -- 33
2020-06-26 14:00:00 30.8 18 Sudeste 28 Sudeste 0 -- -- 35
2020-06-26 13:00:00 30.8 14 Sudeste 22 Sudeste 0 -- -- 37
2020-06-26 12:00:00 29.9 10 Sudeste 17 Este 0 -- -- 39
2020-06-26 11:00:00 28.3 7 Sudeste 14 Este 0 -- -- 43
2020-06-26 10:00:00 26.4 5 Este 9 Este 0 -- -- 52
2020-06-26 09:00:00 24.4 3 Nordeste 6 Sudeste 0 -- -- 58
2020-06-26 08:00:00 20.6 2 Noroeste 12 Oeste 0 -- -- 68
2020-06-26 07:00:00 18.1 8 Noroeste 15 Noroeste 0 -- -- 74
2020-06-26 06:00:00 18.1 9 Noroeste 17 Noroeste 0 -- -- 76
2020-06-26 05:00:00 18.6 5 Noroeste 12 Noroeste 0 -- -- 77
2020-06-26 04:00:00 19 7 Noroeste 9 Oeste 0 -- -- 76
2020-06-26 03:00:00 19 9 Noroeste 12 Noroeste 0 -- -- 77
2020-06-26 02:00:00 19.1 2 Noroeste 5 Oeste 0 -- -- 78
2020-06-26 01:00:00 19.8 3 Noroeste 9 Noroeste 0 -- -- 73
2020-06-26 00:00:00 20.5 6 Noroeste 15 Noroeste 0 -- -- 69
2020-06-25 23:00:00 20.8 7 Noroeste 13 Noroeste 0 -- -- 71
2020-06-25 22:00:00 21.5 4 Noroeste 8 Noroeste 0 -- -- 71
2020-06-25 21:00:00 25.1 3 Sur 17 Sudeste 0 -- -- 57
2020-06-25 20:00:00 27.1 12 Sudeste 22 Sudeste 0 -- -- 48
2020-06-25 19:00:00 29.3 12 Sudeste 19 Sudeste 0 -- -- 46
2020-06-25 18:00:00 29.6 12 Sudeste 20 Sudeste 0 -- -- 47
2020-06-25 17:00:00 29.9 10 Sudeste 19 Sudeste 0 -- -- 50
2020-06-25 16:00:00 29.8 12 Sudeste 22 Sudeste 0 -- -- 49
2020-06-25 15:00:00 29.2 14 Sudeste 27 Este 0 -- -- 53
2020-06-25 14:00:00 29.4 14 Sudeste 27 Sudeste 0 -- -- 55
2020-06-25 13:00:00 29.8 13 Sudeste 23 Sur 0 -- -- 52
2020-06-25 12:00:00 29.1 6 Este 15 Sudeste 0 -- -- 49
2020-06-25 11:00:00 27.6 8 Sudeste 16 Sudeste 0 -- -- 52
2020-06-25 10:00:00 26 5 Este 9 Este 0 -- -- 58
2020-06-25 09:00:00 23.8 4 Este 8 Sudeste 0 -- -- 67
2020-06-25 08:00:00 20.7 4 Noroeste 10 Noroeste 0 -- -- 75
2020-06-25 07:00:00 18.2 8 Noroeste 13 Noroeste 0 -- -- 87
2020-06-25 06:00:00 17.8 5 Noroeste 10 Oeste 0 -- -- 89
2020-06-25 05:00:00 19.5 6 Noroeste 13 Noroeste 0 -- -- 85
2020-06-25 04:00:00 19.3 9 Noroeste 14 Noroeste 0 -- -- 88
2020-06-25 03:00:00 18.7 8 Noroeste 13 Oeste 0 -- -- 90
2020-06-25 02:00:00 18.9 6 Noroeste 10 Oeste 0 -- -- 89
2020-06-25 01:00:00 19.5 8 Noroeste 10 Noroeste 0 -- -- 87
2020-06-25 00:00:00 19.8 4 Noroeste 9 Noroeste 0 -- -- 86
2020-06-24 23:00:00 20.7 5 Oeste 9 Oeste 0 -- -- 82
2020-06-24 22:00:00 21.8 5 Noroeste 10 Sudeste 0 -- -- 80
2020-06-24 21:00:00 24.3 3 Sudeste 17 Sudeste 0 -- -- 70
2020-06-24 20:00:00 26.5 13 Sudeste 19 Sudeste 0 -- -- 61
2020-06-24 19:00:00 28.9 13 Sudeste 25 Sudeste 0 -- -- 51
2020-06-24 18:00:00 29.4 15 Sudeste 30 Sudeste 0 -- -- 50
2020-06-24 17:00:00 29.4 19 Sudeste 33 Sudeste 0 -- -- 50
2020-06-24 16:00:00 29.4 20 Sudeste 32 Sudeste 0 -- -- 51
2020-06-24 15:00:00 29.5 20 Sudeste 31 Sudeste 0 -- -- 51
2020-06-24 14:00:00 29.3 14 Sudeste 24 Sudeste 0 -- -- 55
2020-06-24 13:00:00 29 12 Sudeste 26 Sur 0 -- -- 54
2020-06-24 12:00:00 27.9 14 Sudeste 24 Sur 0 -- -- 54
2020-06-24 11:00:00 26.5 9 Sur 18 Sudeste 0 -- -- 59
2020-06-24 10:00:00 24.4 7 Este 13 Este 0 -- -- 69
2020-06-24 09:00:00 22.1 2 Sudeste 5 Oeste 0 -- -- 72
2020-06-24 08:00:00 18.7 2 Noroeste 9 Noroeste 0 -- -- 80
2020-06-24 07:00:00 15.8 8 Noroeste 12 Noroeste 0 -- -- 86
2020-06-24 06:00:00 15.5 8 Noroeste 10 Noroeste 0 -- -- 87
2020-06-24 05:00:00 15.9 8 Noroeste 12 Oeste 0 -- -- 85
2020-06-24 04:00:00 16.3 6 Noroeste 15 Noroeste 0 -- -- 84
2020-06-24 03:00:00 16.7 9 Noroeste 15 Noroeste 0 -- -- 83
2020-06-24 02:00:00 17.3 8 Noroeste 12 Noroeste 0 -- -- 81
2020-06-24 01:00:00 18.1 8 Noroeste 13 Noroeste 0 -- -- 79
2020-06-24 00:00:00 18.7 8 Noroeste 10 Noroeste 0 -- -- 79
2020-06-23 23:00:00 19.8 6 Noroeste 9 Noroeste 0 -- -- 78
2020-06-23 22:00:00 22.2 3 Sudoeste 12 Sudeste 0 -- -- 69
2020-06-23 21:00:00 25.2 6 Sudeste 21 Sudeste 0 -- -- 56
2020-06-23 20:00:00 27.5 14 Sudeste 23 Sudeste 0 -- -- 51
2020-06-23 19:00:00 28.6 18 Sudeste 27 Sudeste 0 -- -- 49
2020-06-23 18:00:00 29.4 19 Sudeste 30 Sudeste 0 -- -- 47
2020-06-23 17:00:00 30 21 Sudeste 33 Sudeste 0 -- -- 48
2020-06-23 16:00:00 30.1 18 Sudeste 31 Sudeste 0 -- -- 47
2020-06-23 15:00:00 29.4 20 Sudeste 34 Este 0 -- -- 52
2020-06-23 14:00:00 29.1 15 Este 27 Sudeste 0 -- -- 58
2020-06-23 13:00:00 28.7 13 Sudeste 27 Sudeste 0 -- -- 54
2020-06-23 12:00:00 28.5 7 Sur 21 Sudeste 0 -- -- 50
2020-06-23 11:00:00 26.8 6 Este 12 Sudeste 0 -- -- 56
2020-06-23 10:00:00 25 5 Este 10 Sudeste 0 -- -- 64
2020-06-23 09:00:00 22.9 3 Este 5 Este 0 -- -- 71
2020-06-23 08:00:00 19.8 4 Noroeste 10 Noroeste 0 -- -- 82
2020-06-23 07:00:00 17.1 4 Noroeste 6 Noroeste 0 -- -- 92
2020-06-23 06:00:00 17.9 5 Noroeste 9 Noroeste 0 -- -- 91
2020-06-23 05:00:00 18.2 3 Oeste 8 Noroeste 0 -- -- 89
2020-06-23 04:00:00 18.5 4 Noroeste 9 Oeste 0 -- -- 89
2020-06-23 03:00:00 18.5 5 Noroeste 10 Noroeste 0 -- -- 90
2020-06-23 02:00:00 17.9 6 Noroeste 12 Noroeste 0 -- -- 93
2020-06-23 01:00:00 18.4 5 Noroeste 8 Noroeste 0 -- -- 92
2020-06-23 00:00:00 19.2 4 Noroeste 14 Noroeste 0 -- -- 90
2020-06-22 23:00:00 19.4 4 Noroeste 6 Noroeste 0 -- -- 88
2020-06-22 22:00:00 20.4 0 Calma 6 Sur 0 -- -- 81
2020-06-22 21:00:00 23.6 4 Sur 13 Sur 0 -- -- 70
2020-06-22 20:00:00 24.3 10 Sudeste 16 Sudeste 0 -- -- 69
2020-06-22 19:00:00 25 9 Este 23 Sudeste 0 -- -- 68
2020-06-22 18:00:00 26.8 14 Sudeste 24 Sudeste 0 -- -- 64
2020-06-22 17:00:00 27.1 14 Sudeste 25 Sudeste 0 -- -- 63
2020-06-22 16:00:00 28.2 15 Sudeste 27 Sudeste 0 -- -- 58
2020-06-22 15:00:00 27.8 18 Sudeste 31 Sudeste 0 -- -- 56
2020-06-22 14:00:00 28.6 16 Sudeste 27 Sudeste 0 -- -- 49
2020-06-22 13:00:00 28.8 17 Sudeste 28 Sudeste 0 -- -- 49
2020-06-22 12:00:00 28.5 8 Sudeste 18 Este 0 -- -- 48
2020-06-22 11:00:00 27.2 5 Sudeste 13 Sudeste 0 -- -- 53
2020-06-22 10:00:00 25.4 5 Sudeste 10 Sudeste 0 -- -- 66
2020-06-22 09:00:00 22.7 5 Este 8 Este 0 -- -- 79
2020-06-22 08:00:00 20 4 Noroeste 12 Noroeste 0 -- -- 85
2020-06-22 07:00:00 17.3 4 Noroeste 6 Noroeste 0 -- -- 95
2020-06-22 06:00:00 17.3 5 Noroeste 13 Noroeste 0 -- -- 91
2020-06-22 05:00:00 17.3 8 Noroeste 13 Noroeste 0 -- -- 93
2020-06-22 04:00:00 17.6 2 Oeste 7 Noroeste 0 -- -- 93
2020-06-22 03:00:00 18.5 4 Noroeste 9 Noroeste 0 -- -- 90
2020-06-22 02:00:00 18.7 8 Noroeste 12 Noroeste 0 -- -- 93
2020-06-22 01:00:00 19.6 8 Noroeste 13 Noroeste 0 -- -- 92
2020-06-22 00:00:00 19.8 9 Noroeste 13 Noroeste 0 -- -- 93
2020-06-21 23:00:00 20.6 2 Noroeste 5 Oeste 0 -- -- 89
2020-06-21 22:00:00 22.1 0 Calma 6 Sudoeste 0 -- -- 82
2020-06-21 21:00:00 25.3 4 Este 10 Sudeste 0 -- -- 70
2020-06-21 20:00:00 26.2 8 Sudeste 17 Sudeste 0 -- -- 69
2020-06-21 19:00:00 27.4 9 Sudeste 21 Sudeste 0 -- -- 65
2020-06-21 18:00:00 28.7 12 Sudeste 22 Este 0 -- -- 61
2020-06-21 17:00:00 28.6 13 Sudeste 25 Este 0 -- -- 61
2020-06-21 16:00:00 28.4 12 Sudeste 27 Sudeste 0 -- -- 62
2020-06-21 15:00:00 28.6 14 Sudeste 23 Sudeste 0 -- -- 60
2020-06-21 14:00:00 28.2 12 Sudeste 22 Este 0 -- -- 60
2020-06-21 13:00:00 27.9 8 Sudeste 17 Este 0 -- -- 58
2020-06-21 12:00:00 26.6 7 Sudeste 13 Sudeste 0 -- -- 60
2020-06-21 11:00:00 25.1 7 Sudeste 13 Este 0 -- -- 65
2020-06-21 10:00:00 23.2 5 Este 10 Este 0 -- -- 77
2020-06-21 09:00:00 21.4 2 Este 6 Noroeste 0 -- -- 86
2020-06-21 08:00:00 18.5 6 Noroeste 11 Noroeste 0 -- -- 92
2020-06-21 07:00:00 16.4 7 Noroeste 12 Noroeste 0 -- -- 97
2020-06-21 06:00:00 16.1 7 Noroeste 13 Noroeste 0 -- -- 97
2020-06-21 05:00:00 16.6 5 Noroeste 10 Noroeste 0 -- -- 97
2020-06-21 04:00:00 16.8 9 Noroeste 12 Noroeste 0 -- -- 98
2020-06-21 03:00:00 17.2 8 Noroeste 12 Noroeste 0 -- -- 98
2020-06-21 02:00:00 17.6 6 Noroeste 9 Oeste 0 -- -- 98
2020-06-21 01:00:00 18.2 5 Noroeste 9 Noroeste 0 -- -- 97
2020-06-21 00:00:00 19 4 Noroeste 7 Nordeste 0 -- -- 96
2020-06-20 23:00:00 20.1 5 Sudoeste 13 Sudoeste 0 -- -- 95
2020-06-20 22:00:00 20.8 3 Este 9 Noroeste 0 -- -- 95
2020-06-20 21:00:00 21.3 4 Norte 21 Noroeste 6 -- -- 93
2020-06-20 20:00:00 23.7 9 Este 24 Este 0 -- -- 76
2020-06-20 19:00:00 24.5 11 Este 23 Sudeste 0 -- -- 70
2020-06-20 18:00:00 24.7 14 Este 27 Este 0 -- -- 69
2020-06-20 17:00:00 24.3 14 Este 32 Sudeste 0 -- -- 74
2020-06-20 16:00:00 25.4 16 Este 37 Este 0 -- -- 70
2020-06-20 15:00:00 26.9 17 Sudeste 29 Este 0 -- -- 65
2020-06-20 14:00:00 26.8 13 Sudeste 26 Sudeste 0 -- -- 63
2020-06-20 13:00:00 26.2 13 Sudeste 26 Sudeste 0 -- -- 59
2020-06-20 12:00:00 25.1 8 Este 18 Sudeste 0 -- -- 60
2020-06-20 11:00:00 23.8 6 Nordeste 16 Sudeste 0 -- -- 65
2020-06-20 10:00:00 22.3 3 Nordeste 8 Este 0 -- -- 69
2020-06-20 09:00:00 19.9 5 Este 10 Este 0 -- -- 80
2020-06-20 08:00:00 17.5 2 Noroeste 10 Noroeste 0 -- -- 91
2020-06-20 07:00:00 14.4 6 Noroeste 10 Noroeste 0 -- -- 97
2020-06-20 06:00:00 13.8 8 Noroeste 10 Noroeste 0 -- -- 97
2020-06-20 05:00:00 14.3 2 Noroeste 9 Noroeste 0 -- -- 95
2020-06-20 04:00:00 14.6 4 Oeste 12 Oeste 0 -- -- 93
2020-06-20 03:00:00 14.9 8 Noroeste 11 Oeste 0 -- -- 94
2020-06-20 02:00:00 15.2 7 Noroeste 14 Noroeste 0 -- -- 94
2020-06-20 01:00:00 15.7 9 Noroeste 11 Noroeste 0 -- -- 93
2020-06-20 00:00:00 16.4 6 Noroeste 9 Noroeste 0 -- -- 91
2020-06-19 23:00:00 17.2 5 Noroeste 10 Oeste 0 -- -- 88
2020-06-19 22:00:00 18.3 2 Noroeste 8 Este 0 -- -- 84
2020-06-19 21:00:00 20.2 3 Este 15 Este 0 -- -- 75
2020-06-19 20:00:00 21.5 9 Este 22 Sudeste 0 -- -- 68
2020-06-19 19:00:00 22.4 15 Sudeste 26 Sudeste 0 -- -- 63
2020-06-19 18:00:00 23.2 16 Sudeste 28 Sudeste 0 -- -- 58
2020-06-19 17:00:00 23.4 15 Sudeste 30 Sudeste 0 -- -- 58
2020-06-19 16:00:00 24.3 18 Sudeste 29 Sudeste 0 -- -- 54
2020-06-19 15:00:00 24.3 13 Sur 23 Sur 0 -- -- 55
2020-06-19 14:00:00 22.8 10 Sudeste 21 Este 0 -- -- 58
2020-06-19 13:00:00 21.4 9 Sur 17 Sur 0 -- -- 60
2020-06-19 12:00:00 21.7 11 Sudeste 19 Sudeste 0 -- -- 58
2020-06-19 11:00:00 22 5 Sudeste 11 Sur 0 -- -- 56
2020-06-19 10:00:00 21.5 5 Sudeste 12 Este 0 -- -- 58
2020-06-19 09:00:00 19.3 2 Oeste 8 Sur 0 -- -- 80
2020-06-19 08:00:00 17.3 2 Norte 8 Norte 0 -- -- 86
2020-06-19 07:00:00 15 4 Noroeste 6 Noroeste 0 -- -- 96
2020-06-19 06:00:00 14.9 2 Sudeste 4 Noroeste 0 -- -- 97
2020-06-19 05:00:00 15.3 0 Calma 8 Oeste 0 -- -- 96
2020-06-19 04:00:00 15.1 4 Noroeste 9 Noroeste 0 -- -- 96
2020-06-19 03:00:00 14.8 3 Oeste 5 Noroeste 0 -- -- 96
2020-06-19 02:00:00 16 3 Sur 5 Noroeste 0 -- -- 90
2020-06-19 01:00:00 16.8 5 Oeste 6 Oeste 0 -- -- 89
2020-06-19 00:00:00 17.3 4 Norte 8 Norte 0 -- -- 84
2020-06-18 23:00:00 17.9 2 Este 6 Noroeste 0 -- -- 82
2020-06-18 22:00:00 18.1 3 Este 13 Este 0 -- -- 81
2020-06-18 21:00:00 18.8 6 Este 15 Este 0 -- -- 77
2020-06-18 20:00:00 20 7 Este 18 Sudeste 0 -- -- 75
2020-06-18 19:00:00 22.3 12 Sudeste 23 Sur 0 -- -- 66
2020-06-18 18:00:00 22.3 10 Sudeste 22 Sudeste 0 -- -- 67
2020-06-18 17:00:00 23.8 18 Sudeste 29 Este 0 -- -- 63
2020-06-18 16:00:00 24.3 11 Sudeste 23 Este 0 -- -- 59
2020-06-18 15:00:00 23.3 7 Sudeste 20 Sudeste 0 -- -- 58
2020-06-18 14:00:00 22.9 11 Sudeste 17 Sudeste 0 -- -- 63
2020-06-18 13:00:00 21 6 Sudeste 14 Sudeste 0 -- -- 67
2020-06-18 12:00:00 18.6 4 Noroeste 10 Sudeste 0 -- -- 81
2020-06-18 11:00:00 17.3 5 Este 12 Este 0.8 -- -- 92
2020-06-18 10:00:00 14.7 5 Sur 15 Sudeste 7.6 -- -- 98
2020-06-18 09:00:00 14.8 5 Norte 12 Noroeste 8.6 -- -- 97
2020-06-18 08:00:00 15 6 Sur 11 Oeste 1.2 -- -- 95
2020-06-18 07:00:00 15.2 8 Noroeste 13 Noroeste 0 -- -- 91
2020-06-18 06:00:00 14.4 3 Noroeste 6 Noroeste 0 -- -- 95
2020-06-18 05:00:00 14.2 2 Noroeste 7 Noroeste 0 -- -- 93
2020-06-18 04:00:00 14.4 5 Noroeste 9 Noroeste 0 -- -- 94
2020-06-18 03:00:00 14.6 6 Noroeste 10 Noroeste 0 -- -- 94
2020-06-18 02:00:00 14.4 5 Oeste 8 Oeste 0 -- -- 92
2020-06-18 01:00:00 16 3 Noroeste 8 Noroeste 0 -- -- 91
2020-06-18 00:00:00 16.1 3 Norte 9 Oeste 0 -- -- 88
2020-06-17 23:00:00 17.2 5 Norte 17 Norte 0 -- -- 84
2020-06-17 22:00:00 18.2 6 Norte 14 Nordeste 0 -- -- 81
2020-06-17 21:00:00 19.7 5 Este 15 Sudeste 0 -- -- 72
2020-06-17 20:00:00 21.9 9 Sudeste 16 Sudeste 0 -- -- 62
2020-06-17 19:00:00 21.2 6 Este 19 Sudeste 0 -- -- 69
2020-06-17 18:00:00 21.1 8 Este 24 Este 0 -- -- 67
2020-06-17 17:00:00 21.6 14 Este 27 Sudeste 0 -- -- 62
2020-06-17 16:00:00 24.1 14 Sudeste 31 Sudeste 0 -- -- 55
2020-06-17 15:00:00 22.7 21 Sudeste 41 Sudeste 0 -- -- 61
2020-06-17 14:00:00 24.3 17 Sudeste 28 Sudeste 0 -- -- 53
2020-06-17 13:00:00 23.4 8 Sur 28 Sudeste 0 -- -- 53
2020-06-17 12:00:00 22 12 Sudeste 20 Este 0 -- -- 60
2020-06-17 11:00:00 20.8 4 Este 11 Norte 0 -- -- 65
2020-06-17 10:00:00 19 5 Oeste 15 Sudoeste 0 -- -- 73
2020-06-17 09:00:00 18.3 4 Noroeste 9 Noroeste 0 -- -- 81
2020-06-17 08:00:00 15.3 3 Noroeste 10 Oeste 0 -- -- 99
2020-06-17 07:00:00 12.8 5 Noroeste 9 Oeste 0 -- -- 100
2020-06-17 06:00:00 12.6 0 Calma 9 Sudeste 0 -- -- 98
2020-06-17 05:00:00 13.4 5 Sudeste 8 Sudeste 0 -- -- 99
2020-06-17 04:00:00 13.8 2 Norte 13 Noroeste 0 -- -- 97
2020-06-17 03:00:00 14 6 Noroeste 9 Oeste 0 -- -- 97
2020-06-17 02:00:00 14.9 2 Oeste 8 Oeste 0 -- -- 97
2020-06-17 01:00:00 14.6 5 Noroeste 10 Noroeste 0 -- -- 96
2020-06-17 00:00:00 15.1 4 Oeste 10 Noroeste 0 -- -- 95
2020-06-16 23:00:00 16.2 4 Noroeste 10 Oeste 0 -- -- 94
2020-06-16 22:00:00 17.2 4 Noroeste 8 Noroeste 0 -- -- 92
2020-06-16 21:00:00 19.3 5 Sudoeste 11 Sur 0 -- -- 84
2020-06-16 20:00:00 21.1 6 Sur 17 Sudeste 0 -- -- 76
2020-06-16 19:00:00 22 6 Sudeste 15 Sudeste 0 -- -- 73
2020-06-16 18:00:00 20.9 7 Sur 13 Sur 0 -- -- 79
2020-06-16 17:00:00 19.4 4 Sudeste 11 Sudeste 0 -- -- 87
2020-06-16 16:00:00 18.2 6 Sudeste 10 Sudeste 1.6 -- -- 91
2020-06-16 15:00:00 18.5 2 Oeste 18 Oeste 0.8 -- -- 86
2020-06-16 14:00:00 19.1 8 Oeste 14 Oeste 0 -- -- 81
2020-06-16 13:00:00 19.2 2 Noroeste 10 Sudoeste 0.2 -- -- 85
2020-06-16 12:00:00 19.1 5 Oeste 9 Oeste 0.2 -- -- 85
2020-06-16 11:00:00 17.8 0 Calma 10 Noroeste 0 -- -- 94
2020-06-16 10:00:00 17.6 0 Calma 6 Sur 0.2 -- -- 94
2020-06-16 09:00:00 17.1 3 Sur 8 Oeste 0.2 -- -- 96
2020-06-16 08:00:00 16.5 6 Noroeste 15 Oeste 0 -- -- 95
2020-06-16 07:00:00 16.2 5 Noroeste 8 Noroeste 0.6 -- -- 97
2020-06-16 06:00:00 16.3 4 Noroeste 9 Sudeste 0 -- -- 96
2020-06-16 05:00:00 16.2 5 Noroeste 15 Oeste 0 -- -- 95
2020-06-16 04:00:00 16.3 6 Noroeste 12 Noroeste 0.2 -- -- 94
2020-06-16 03:00:00 17 3 Oeste 10 Noroeste 0.4 -- -- 94
2020-06-16 02:00:00 16.8 9 Noroeste 15 Noroeste 0 -- -- 91
2020-06-16 01:00:00 16.6 9 Noroeste 12 Noroeste 0 -- -- 94
2020-06-16 00:00:00 16.9 5 Noroeste 6 Noroeste 0 -- -- 92
2020-06-15 23:00:00 18.8 0 Calma 8 Sudeste 0 -- -- 87
2020-06-15 22:00:00 20.2 3 Este 13 Este 0 -- -- 82
2020-06-15 21:00:00 20.9 5 Este 19 Nordeste 0 -- -- 80
2020-06-15 20:00:00 21.2 11 Este 26 Este 0 -- -- 78
2020-06-15 19:00:00 23.7 10 Sudeste 22 Sudeste 0 -- -- 66
2020-06-15 18:00:00 25 13 Sudeste 23 Sudeste 0 -- -- 60
2020-06-15 17:00:00 25.3 15 Sudeste 27 Este 0 -- -- 58
2020-06-15 16:00:00 25 20 Sudeste 37 Este 0 -- -- 53
2020-06-15 15:00:00 24.9 21 Sudeste 35 Sudeste 0 -- -- 52
2020-06-15 14:00:00 25.6 20 Sudeste 41 Sudeste 0 -- -- 58
2020-06-15 13:00:00 25.9 15 Sur 36 Sur 0 -- -- 50
2020-06-15 12:00:00 24.5 12 Sudeste 22 Sudeste 0 -- -- 57
2020-06-15 11:00:00 23.8 10 Sudeste 26 Este 0 -- -- 57
2020-06-15 10:00:00 22.6 6 Sudeste 15 Este 0 -- -- 58
2020-06-15 09:00:00 21.4 3 Este 6 Este 0 -- -- 59
2020-06-15 08:00:00 17.9 0 Calma 13 Noroeste 0 -- -- 77
2020-06-15 07:00:00 15.5 10 Noroeste 14 Noroeste 0 -- -- 85
2020-06-15 06:00:00 14.5 7 Noroeste 10 Noroeste 0 -- -- 88
2020-06-15 05:00:00 15.6 8 Noroeste 12 Noroeste 0 -- -- 85
2020-06-15 04:00:00 15.9 8 Noroeste 14 Oeste 0 -- -- 85
2020-06-15 03:00:00 15.9 7 Noroeste 11 Oeste 0 -- -- 85
2020-06-15 02:00:00 15.5 7 Noroeste 15 Noroeste 0 -- -- 88
2020-06-15 01:00:00 15.6 9 Noroeste 14 Noroeste 0 -- -- 87
2020-06-15 00:00:00 16.2 9 Noroeste 12 Noroeste 0 -- -- 86
2020-06-14 23:00:00 16.5 7 Noroeste 9 Noroeste 0 -- -- 82
2020-06-14 22:00:00 18 5 Noroeste 10 Sur 0 -- -- 76
2020-06-14 21:00:00 22.1 9 Sur 18 Sudeste 0 -- -- 58
2020-06-14 20:00:00 23.3 9 Sudeste 21 Sudeste 0 -- -- 55
2020-06-14 19:00:00 25.3 11 Sur 24 Sudeste 0 -- -- 52
2020-06-14 18:00:00 25.5 12 Sudeste 23 Sudeste 0 -- -- 53
2020-06-14 17:00:00 24.4 12 Sudeste 25 Sudeste 0 -- -- 55
2020-06-14 16:00:00 25.1 17 Sudeste 31 Sudeste 0 -- -- 57
2020-06-14 15:00:00 24.5 20 Sudeste 34 Este 0 -- -- 61
2020-06-14 14:00:00 24.7 19 Sudeste 30 Sudeste 0 -- -- 60
2020-06-14 13:00:00 25.2 15 Sudeste 26 Sudeste 0 -- -- 57
2020-06-14 12:00:00 23.7 11 Sudeste 19 Sudeste 0 -- -- 53
2020-06-14 11:00:00 23.2 10 Este 18 Este 0 -- -- 54
2020-06-14 10:00:00 21.9 5 Este 14 Sudeste 0 -- -- 55
2020-06-14 09:00:00 20.1 3 Nordeste 7 Norte 0 -- -- 66
2020-06-14 08:00:00 16.5 2 Este 13 Oeste 0 -- -- 79
2020-06-14 07:00:00 13.6 6 Noroeste 13 Oeste 0 -- -- 89
2020-06-14 06:00:00 13.1 8 Oeste 14 Oeste 0 -- -- 90
2020-06-14 05:00:00 13.5 7 Noroeste 15 Noroeste 0 -- -- 86
2020-06-14 04:00:00 13.5 12 Noroeste 17 Noroeste 0 -- -- 87
2020-06-14 03:00:00 14 11 Noroeste 15 Noroeste 0 -- -- 86
2020-06-14 02:00:00 14 10 Noroeste 13 Noroeste 0 -- -- 87
2020-06-14 01:00:00 15 2 Oeste 7 Noroeste 0 -- -- 82
2020-06-14 00:00:00 17.3 2 Norte 9 Sudoeste 0 -- -- 70
2020-06-13 23:00:00 19.6 3 Nordeste 22 Este 0 -- -- 60
2020-06-13 22:00:00 20.9 4 Nordeste 10 Este 0 -- -- 59
2020-06-13 21:00:00 22.6 5 Este 28 Nordeste 0 -- -- 59
2020-06-13 20:00:00 24.1 9 Nordeste 22 Norte 0 -- -- 48
2020-06-13 19:00:00 27.3 14 Sudoeste 29 Sudoeste 0 -- -- 30
2020-06-13 18:00:00 27.6 15 Sudoeste 29 Sudoeste 0 -- -- 33
2020-06-13 17:00:00 27.4 14 Sudoeste 28 Sudoeste 0 -- -- 34
2020-06-13 16:00:00 26.5 19 Sudoeste 33 Sudoeste 0 -- -- 34
2020-06-13 15:00:00 26.5 19 Sudoeste 33 Sudoeste 0 -- -- 33
2020-06-13 14:00:00 24.8 16 Oeste 34 Oeste 0 -- -- 39
2020-06-13 13:00:00 25.7 15 Oeste 36 Sudoeste 0 -- -- 36
2020-06-13 12:00:00 24.8 12 Oeste 31 Oeste 0 -- -- 40
2020-06-13 11:00:00 23.6 18 Oeste 31 Oeste 0 -- -- 42
2020-06-13 10:00:00 21.3 9 Norte 28 Sudoeste 0 -- -- 49
2020-06-13 09:00:00 18.9 4 Norte 9 Oeste 0 -- -- 58
2020-06-13 08:00:00 14.9 4 Este 14 Este 0 -- -- 83
2020-06-13 07:00:00 14 5 Noroeste 15 Noroeste 0 -- -- 85
2020-06-13 06:00:00 12.6 9 Noroeste 14 Noroeste 0 -- -- 90
2020-06-13 05:00:00 13.9 4 Este 13 Noroeste 0 -- -- 85
2020-06-13 04:00:00 14.6 13 Noroeste 19 Noroeste 0 -- -- 78
2020-06-13 03:00:00 14.2 9 Noroeste 15 Oeste 0 -- -- 80
2020-06-13 02:00:00 13.4 9 Noroeste 12 Noroeste 0 -- -- 84
2020-06-13 01:00:00 14 8 Noroeste 12 Oeste 0 -- -- 81
2020-06-13 00:00:00 15.5 3 Este 9 Sur 0 -- -- 75
2020-06-12 23:00:00 16.1 2 Este 7 Noroeste 0 -- -- 73
2020-06-12 22:00:00 18.7 3 Sudoeste 14 Sudoeste 0 -- -- 62
2020-06-12 21:00:00 21.9 8 Sudoeste 22 Sudeste 0 -- -- 53
2020-06-12 20:00:00 23.9 14 Sur 26 Sudoeste 0 -- -- 50
2020-06-12 19:00:00 25.1 14 Sudoeste 24 Sur 0 -- -- 46
2020-06-12 18:00:00 25.6 8 Sur 24 Sudoeste 0 -- -- 39
2020-06-12 17:00:00 26 14 Sudoeste 27 Sudoeste 0 -- -- 38
2020-06-12 16:00:00 25.8 12 Sudoeste 31 Sudoeste 0 -- -- 37
2020-06-12 15:00:00 25 15 Sudoeste 34 Sur 0 -- -- 40
2020-06-12 14:00:00 25.3 17 Sur 31 Sudeste 0 -- -- 38
2020-06-12 13:00:00 24.5 12 Sudoeste 27 Sudoeste 0 -- -- 46
2020-06-12 12:00:00 24 12 Sudoeste 31 Sudoeste 0 -- -- 44
2020-06-12 11:00:00 23 16 Oeste 24 Oeste 0 -- -- 48
2020-06-12 10:00:00 22.2 12 Oeste 21 Sudoeste 0 -- -- 59
2020-06-12 09:00:00 20.5 9 Oeste 17 Sudoeste 0 -- -- 70
2020-06-12 08:00:00 18.4 4 Oeste 9 Oeste 0 -- -- 96
2020-06-12 07:00:00 17.8 3 Sur 8 Oeste 0 -- -- 97
2020-06-12 06:00:00 17.7 4 Noroeste 8 Oeste 0 -- -- 94
2020-06-12 05:00:00 18 4 Noroeste 9 Noroeste 0 -- -- 95
2020-06-12 04:00:00 18 3 Noroeste 6 Noroeste 0 -- -- 95
2020-06-12 03:00:00 18.2 3 Norte 7 Noroeste 0 -- -- 94
2020-06-12 02:00:00 17.8 5 Oeste 10 Noroeste 0 -- -- 97
2020-06-12 01:00:00 17.4 5 Noroeste 9 Noroeste 0 -- -- 98
2020-06-12 00:00:00 15.9 4 Noroeste 8 Noroeste 0 -- -- 97
2020-06-11 23:00:00 17.1 3 Noroeste 6 Noroeste 0 -- -- 96
2020-06-11 22:00:00 18.9 4 Este 10 Sudeste 0 -- -- 90
2020-06-11 21:00:00 19.6 8 Sudeste 18 Este 0 -- -- 88
2020-06-11 20:00:00 20 5 Noroeste 15 Oeste 0 -- -- 90
2020-06-11 19:00:00 20.5 4 Norte 11 Este 0.2 -- -- 86
2020-06-11 18:00:00 21.3 6 Este 19 Este 0 -- -- 77
2020-06-11 17:00:00 21.8 5 Este 15 Este 0 -- -- 73
2020-06-11 16:00:00 20.9 7 Este 17 Sudeste 0 -- -- 75
2020-06-11 15:00:00 21.1 10 Sudeste 24 Sudeste 0 -- -- 71
2020-06-11 14:00:00 21.9 6 Este 21 Sudeste 0 -- -- 67
2020-06-11 13:00:00 21.4 11 Este 19 Este 0 -- -- 66
2020-06-11 12:00:00 19.2 5 Este 10 Este 0 -- -- 77
2020-06-11 11:00:00 18.2 3 Este 8 Este 0 -- -- 76
2020-06-11 10:00:00 17.4 3 Sudeste 5 Sudeste 0 -- -- 80
2020-06-11 09:00:00 16.2 0 Calma 3 Este 0 -- -- 86
2020-06-11 08:00:00 15.4 0 Calma 3 Noroeste 0 -- -- 89
2020-06-11 07:00:00 14.8 0 Calma 6 Noroeste 0 -- -- 92
2020-06-11 06:00:00 14.6 4 Noroeste 8 Noroeste 0 -- -- 93
2020-06-11 05:00:00 14.9 2 Oeste 8 Oeste 0 -- -- 92
2020-06-11 04:00:00 14.8 4 Noroeste 7 Noroeste 0 -- -- 92
2020-06-11 03:00:00 14.7 3 Noroeste 6 Noroeste 0 -- -- 94
2020-06-11 02:00:00 14.9 0 Calma 6 Noroeste 0 -- -- 93
2020-06-11 01:00:00 15.2 0 Calma 9 Oeste 0 -- -- 93
2020-06-11 00:00:00 15.1 8 Noroeste 10 Noroeste 0 -- -- 91
2020-06-10 23:00:00 15.6 5 Noroeste 8 Noroeste 0 -- -- 90
2020-06-10 22:00:00 15.8 6 Noroeste 8 Noroeste 0 -- -- 89
2020-06-10 21:00:00 16.6 3 Noroeste 8 Norte 0 -- -- 86
2020-06-10 20:00:00 17 4 Noroeste 11 Este 0 -- -- 79
2020-06-10 19:00:00 17.6 4 Nordeste 23 Este 0.2 -- -- 79
2020-06-10 18:00:00 16.8 8 Norte 18 Nordeste 1 -- -- 83
2020-06-10 17:00:00 19.8 8 Nordeste 31 Sudeste 0 -- -- 67
2020-06-10 16:00:00 21.6 20 Sudeste 31 Sudeste 0 -- -- 60
2020-06-10 15:00:00 23.1 18 Sudeste 30 Sudeste 0 -- -- 55
2020-06-10 14:00:00 22.3 15 Sudeste 27 Este 0 -- -- 58
2020-06-10 13:00:00 21.8 13 Sudeste 23 Sudeste 0 -- -- 56
2020-06-10 12:00:00 21.7 8 Este 19 Sur 0 -- -- 58
2020-06-10 11:00:00 20.1 6 Sudeste 14 Este 0 -- -- 62
2020-06-10 10:00:00 18.6 8 Este 13 Este 0 -- -- 72
2020-06-10 09:00:00 15.9 3 Nordeste 7 Este 0 -- -- 84
2020-06-10 08:00:00 13.2 5 Este 9 Noroeste 0 -- -- 96
2020-06-10 07:00:00 11.2 6 Oeste 14 Noroeste 0 -- -- 97
2020-06-10 06:00:00 10.4 5 Noroeste 9 Noroeste 0 -- -- 97
2020-06-10 05:00:00 10.7 7 Noroeste 10 Noroeste 0 -- -- 97
2020-06-10 04:00:00 11 3 Oeste 9 Noroeste 0 -- -- 95
2020-06-10 03:00:00 11.5 6 Noroeste 11 Noroeste 0 -- -- 95
2020-06-10 02:00:00 12.5 4 Noroeste 6 Noroeste 0 -- -- 95
2020-06-10 01:00:00 13.8 4 Noroeste 7 Noroeste 0 -- -- 94
2020-06-10 00:00:00 14.3 0 Calma 12 Noroeste 0 -- -- 92
2020-06-09 23:00:00 14.3 4 Noroeste 9 Noroeste 0 -- -- 89
2020-06-09 22:00:00 14.6 6 Oeste 14 Noroeste 0 -- -- 87
2020-06-09 21:00:00 16.1 3 Oeste 5 Sur 0 -- -- 84
2020-06-09 20:00:00 17 0 Calma 8 Norte 0 -- -- 74
2020-06-09 19:00:00 17.2 3 Norte 12 Noroeste 0 -- -- 77
2020-06-09 18:00:00 14.8 3 Nordeste 13 Este 0 -- -- 87
2020-06-09 17:00:00 15.4 9 Sudeste 25 Nordeste 2.2 -- -- 87
2020-06-09 16:00:00 18.3 8 Este 18 Nordeste 0 -- -- 74
2020-06-09 15:00:00 17.5 6 Nordeste 33 Norte 0.2 -- -- 78
2020-06-09 14:00:00 20.3 16 Sudeste 27 Sudeste 0 -- -- 66
2020-06-09 13:00:00 21 8 Sudeste 20 Sudeste 0 -- -- 55
2020-06-09 12:00:00 21.6 9 Este 19 Este 0 -- -- 54
2020-06-09 11:00:00 20.7 3 Sur 15 Sudeste 0 -- -- 53
2020-06-09 10:00:00 19.4 4 Noroeste 10 Sur 0 -- -- 58
2020-06-09 09:00:00 17.5 4 Este 7 Sudeste 0 -- -- 72
2020-06-09 08:00:00 13.9 2 Este 8 Oeste 0 -- -- 93
2020-06-09 07:00:00 10 4 Noroeste 6 Noroeste 0 -- -- 99
2020-06-09 06:00:00 9.9 4 Noroeste 6 Noroeste 0 -- -- 99
2020-06-09 05:00:00 10.9 3 Sudeste 9 Noroeste 0 -- -- 96
2020-06-09 04:00:00 11.9 4 Noroeste 11 Noroeste 0 -- -- 94
2020-06-09 03:00:00 12.5 8 Oeste 18 Sudoeste 0 -- -- 90
2020-06-09 02:00:00 12.2 5 Noroeste 10 Noroeste 0 -- -- 96
2020-06-09 01:00:00 12.8 5 Sudeste 8 Sudeste 0 -- -- 95
2020-06-09 00:00:00 12 4 Noroeste 9 Noroeste 0 -- -- 95
2020-06-08 23:00:00 13.3 9 Oeste 14 Noroeste 0 -- -- 91
2020-06-08 22:00:00 14 8 Noroeste 13 Noroeste 0 -- -- 88
2020-06-08 21:00:00 14.8 5 Noroeste 14 Norte 0 -- -- 86
2020-06-08 20:00:00 15.1 5 Norte 22 Nordeste 0 -- -- 85
2020-06-08 19:00:00 16.1 5 Nordeste 25 Este 0 -- -- 77
2020-06-08 18:00:00 19.3 10 Sudeste 27 Sudeste 0 -- -- 60
2020-06-08 17:00:00 21.4 14 Sur 26 Sudeste 0 -- -- 55
2020-06-08 16:00:00 20.6 16 Sudeste 28 Sudeste 0 -- -- 54
2020-06-08 15:00:00 20 12 Sudeste 27 Sudeste 0 -- -- 60
2020-06-08 14:00:00 21.9 14 Sudeste 25 Sudeste 0 -- -- 57
2020-06-08 13:00:00 20.9 14 Sudeste 26 Este 0 -- -- 57
2020-06-08 12:00:00 18.7 13 Sudeste 24 Sudeste 0 -- -- 68
2020-06-08 11:00:00 16.8 13 Sudeste 25 Este 0 -- -- 73
2020-06-08 10:00:00 17.4 4 Este 12 Sudeste 0.2 -- -- 80
2020-06-08 09:00:00 16.1 4 Sudeste 8 Sudeste 0 -- -- 85
2020-06-08 08:00:00 14.8 0 Calma 5 Norte 0 -- -- 89
2020-06-08 07:00:00 14.2 3 Noroeste 8 Norte 0 -- -- 96
2020-06-08 06:00:00 14.6 4 Norte 11 Sudeste 0 -- -- 99
2020-06-08 05:00:00 14.8 7 Sudeste 10 Sudeste 0 -- -- 99
2020-06-08 04:00:00 14.5 3 Oeste 10 Noroeste 0 -- -- 99
2020-06-08 03:00:00 14.8 4 Noroeste 6 Noroeste 0 -- -- 99
2020-06-08 02:00:00 14.9 0 Calma 7 Este 0 -- -- 98
2020-06-08 01:00:00 15 4 Sudeste 8 Noroeste 0 -- -- 97
2020-06-08 00:00:00 14.7 8 Noroeste 13 Noroeste 0 -- -- 97
2020-06-07 23:00:00 14.9 5 Sudoeste 8 Sudoeste 0 -- -- 97
2020-06-07 22:00:00 15 0 Calma 8 Oeste 0 -- -- 98
2020-06-07 21:00:00 14.9 5 Noroeste 12 Oeste 0 -- -- 97
2020-06-07 20:00:00 15.8 4 Oeste 21 Norte 0 -- -- 92
2020-06-07 19:00:00 16.8 10 Noroeste 17 Noroeste 0 -- -- 90
2020-06-07 18:00:00 20.7 4 Sur 15 Sudeste 0 -- -- 69
2020-06-07 17:00:00 20.6 5 Este 19 Sur 0 -- -- 70
2020-06-07 16:00:00 23.5 8 Sudeste 21 Sudeste 0 -- -- 63
2020-06-07 15:00:00 21.8 7 Sudeste 19 Sudeste 0 -- -- 73
2020-06-07 14:00:00 23.4 8 Este 17 Nordeste 0 -- -- 57
2020-06-07 13:00:00 22.6 6 Nordeste 14 Este 0 -- -- 60
2020-06-07 12:00:00 20 4 Sudeste 8 Norte 0 -- -- 77
2020-06-07 11:00:00 18.7 4 Norte 10 Sur 0 -- -- 84
2020-06-07 10:00:00 17.6 7 Oeste 10 Sudoeste 0 -- -- 94
2020-06-07 09:00:00 18.8 3 Norte 13 Nordeste 0 -- -- 81
2020-06-07 08:00:00 17.9 4 Norte 12 Norte 0 -- -- 87
2020-06-07 07:00:00 17.3 5 Este 8 Sudoeste 0 -- -- 97
2020-06-07 06:00:00 16.9 6 Sudoeste 8 Sudoeste 0 -- -- 97
2020-06-07 05:00:00 17.3 3 Este 10 Noroeste 0 -- -- 95
2020-06-07 04:00:00 17 3 Noroeste 6 Este 0 -- -- 96
2020-06-07 03:00:00 17.6 3 Nordeste 9 Noroeste 0 -- -- 95
2020-06-07 02:00:00 18.1 4 Nordeste 11 Norte 0 -- -- 93
2020-06-07 01:00:00 18.3 6 Noroeste 14 Nordeste 0 -- -- 94
2020-06-07 00:00:00 18.9 5 Nordeste 16 Norte 0 -- -- 91